sensor_id;sensor_type;location;lat;lon;timestamp;temperature;humidity
20526;DHT22;10421;49.142;9.232;2022-09-09T00:01:44;22.20;82.70
20526;DHT22;10421;49.142;9.232;2022-09-09T00:04:23;22.10;82.70
20526;DHT22;10421;49.142;9.232;2022-09-09T00:07:00;22.10;82.90
20526;DHT22;10421;49.142;9.232;2022-09-09T00:09:31;22.10;83.10
20526;DHT22;10421;49.142;9.232;2022-09-09T00:12:10;22.10;83.30
20526;DHT22;10421;49.142;9.232;2022-09-09T00:14:45;22.10;83.40
20526;DHT22;10421;49.142;9.232;2022-09-09T00:17:21;22.10;83.50
20526;DHT22;10421;49.142;9.232;2022-09-09T00:19:56;22.10;83.60
20526;DHT22;10421;49.142;9.232;2022-09-09T00:22:28;22.00;83.80
20526;DHT22;10421;49.142;9.232;2022-09-09T00:25:01;22.00;83.80
20526;DHT22;10421;49.142;9.232;2022-09-09T00:27:33;22.00;83.90
20526;DHT22;10421;49.142;9.232;2022-09-09T00:30:15;22.10;84.10
20526;DHT22;10421;49.142;9.232;2022-09-09T00:32:45;22.10;84.00
20526;DHT22;10421;49.142;9.232;2022-09-09T00:35:18;22.00;83.90
20526;DHT22;10421;49.142;9.232;2022-09-09T00:37:50;22.00;83.70
20526;DHT22;10421;49.142;9.232;2022-09-09T00:40:23;22.00;82.70
20526;DHT22;10421;49.142;9.232;2022-09-09T00:42:58;21.90;81.10
20526;DHT22;10421;49.142;9.232;2022-09-09T00:45:48;21.80;80.00
20526;DHT22;10421;49.142;9.232;2022-09-09T00:48:22;21.70;79.10
20526;DHT22;10421;49.142;9.232;2022-09-09T00:50:57;21.60;78.80
20526;DHT22;10421;49.142;9.232;2022-09-09T00:53:32;21.60;78.80
20526;DHT22;10421;49.142;9.232;2022-09-09T00:56:11;21.60;78.70
20526;DHT22;10421;49.142;9.232;2022-09-09T00:58:40;21.60;78.50
20526;DHT22;10421;49.142;9.232;2022-09-09T01:01:10;21.60;78.10
20526;DHT22;10421;49.142;9.232;2022-09-09T01:03:43;21.60;77.90
20526;DHT22;10421;49.142;9.232;2022-09-09T01:06:20;21.60;78.00
20526;DHT22;10421;49.142;9.232;2022-09-09T01:09:09;21.60;78.00
20526;DHT22;10421;49.142;9.232;2022-09-09T01:11:47;21.70;77.90
20526;DHT22;10421;49.142;9.232;2022-09-09T01:14:24;21.60;77.60
20526;DHT22;10421;49.142;9.232;2022-09-09T01:16:56;21.70;77.50
20526;DHT22;10421;49.142;9.232;2022-09-09T01:19:39;21.70;77.30
20526;DHT22;10421;49.142;9.232;2022-09-09T01:22:16;21.60;77.20
20526;DHT22;10421;49.142;9.232;2022-09-09T01:25:01;21.60;77.50
20526;DHT22;10421;49.142;9.232;2022-09-09T01:27:35;21.60;77.60
20526;DHT22;10421;49.142;9.232;2022-09-09T01:30:05;21.60;77.70
20526;DHT22;10421;49.142;9.232;2022-09-09T01:32:41;21.60;77.70
20526;DHT22;10421;49.142;9.232;2022-09-09T01:35:12;21.70;77.70
20526;DHT22;10421;49.142;9.232;2022-09-09T01:37:39;21.70;77.60
20526;DHT22;10421;49.142;9.232;2022-09-09T01:40:07;21.70;77.50
20526;DHT22;10421;49.142;9.232;2022-09-09T01:42:35;21.70;77.50
20526;DHT22;10421;49.142;9.232;2022-09-09T01:45:02;21.70;77.50
20526;DHT22;10421;49.142;9.232;2022-09-09T01:47:30;21.70;77.40
20526;DHT22;10421;49.142;9.232;2022-09-09T01:49:57;21.80;77.30
20526;DHT22;10421;49.142;9.232;2022-09-09T01:52:25;21.70;77.10
20526;DHT22;10421;49.142;9.232;2022-09-09T01:54:51;21.70;77.30
20526;DHT22;10421;49.142;9.232;2022-09-09T01:57:21;21.70;77.40
20526;DHT22;10421;49.142;9.232;2022-09-09T02:00:00;21.70;77.30
20526;DHT22;10421;49.142;9.232;2022-09-09T02:02:32;21.70;77.50
20526;DHT22;10421;49.142;9.232;2022-09-09T02:05:11;21.60;77.30
20526;DHT22;10421;49.142;9.232;2022-09-09T02:07:41;21.60;77.40
20526;DHT22;10421;49.142;9.232;2022-09-09T02:10:11;21.60;77.40
20526;DHT22;10421;49.142;9.232;2022-09-09T02:12:42;21.60;77.50
20526;DHT22;10421;49.142;9.232;2022-09-09T02:15:17;21.60;77.50
20526;DHT22;10421;49.142;9.232;2022-09-09T02:17:47;21.60;77.40
20526;DHT22;10421;49.142;9.232;2022-09-09T02:20:15;21.60;77.60
20526;DHT22;10421;49.142;9.232;2022-09-09T02:22:44;21.60;77.60
20526;DHT22;10421;49.142;9.232;2022-09-09T02:25:14;21.60;77.50
20526;DHT22;10421;49.142;9.232;2022-09-09T02:27:43;21.70;77.70
20526;DHT22;10421;49.142;9.232;2022-09-09T02:30:13;21.70;77.80
20526;DHT22;10421;49.142;9.232;2022-09-09T02:32:42;21.70;78.30
20526;DHT22;10421;49.142;9.232;2022-09-09T02:35:13;21.70;79.00
20526;DHT22;10421;49.142;9.232;2022-09-09T02:37:42;21.70;79.00
20526;DHT22;10421;49.142;9.232;2022-09-09T02:40:12;21.80;79.60
20526;DHT22;10421;49.142;9.232;2022-09-09T02:42:41;21.80;80.70
20526;DHT22;10421;49.142;9.232;2022-09-09T02:45:10;21.80;81.60
20526;DHT22;10421;49.142;9.232;2022-09-09T02:47:44;21.70;81.90
20526;DHT22;10421;49.142;9.232;2022-09-09T02:50:17;21.60;82.80
20526;DHT22;10421;49.142;9.232;2022-09-09T02:52:54;21.60;83.10
20526;DHT22;10421;49.142;9.232;2022-09-09T02:55:33;21.60;83.00
20526;DHT22;10421;49.142;9.232;2022-09-09T02:58:03;21.60;83.20
20526;DHT22;10421;49.142;9.232;2022-09-09T03:00:31;21.50;83.60
20526;DHT22;10421;49.142;9.232;2022-09-09T03:03:00;21.40;83.80
20526;DHT22;10421;49.142;9.232;2022-09-09T03:05:27;21.40;84.20
20526;DHT22;10421;49.142;9.232;2022-09-09T03:07:53;21.40;85.00
20526;DHT22;10421;49.142;9.232;2022-09-09T03:10:20;21.30;84.60
20526;DHT22;10421;49.142;9.232;2022-09-09T03:12:47;21.30;84.40
20526;DHT22;10421;49.142;9.232;2022-09-09T03:15:14;21.20;85.00
20526;DHT22;10421;49.142;9.232;2022-09-09T03:17:41;21.20;85.00
20526;DHT22;10421;49.142;9.232;2022-09-09T03:20:09;21.20;85.00
20526;DHT22;10421;49.142;9.232;2022-09-09T03:22:36;21.10;85.10
20526;DHT22;10421;49.142;9.232;2022-09-09T03:25:03;21.10;85.20
20526;DHT22;10421;49.142;9.232;2022-09-09T03:27:31;21.10;85.50
20526;DHT22;10421;49.142;9.232;2022-09-09T03:29:58;21.20;85.90
20526;DHT22;10421;49.142;9.232;2022-09-09T03:32:25;21.10;85.90
20526;DHT22;10421;49.142;9.232;2022-09-09T03:34:52;21.10;85.70
20526;DHT22;10421;49.142;9.232;2022-09-09T03:37:20;21.20;85.50
20526;DHT22;10421;49.142;9.232;2022-09-09T03:39:48;21.20;85.30
20526;DHT22;10421;49.142;9.232;2022-09-09T03:42:16;21.20;85.70
20526;DHT22;10421;49.142;9.232;2022-09-09T03:44:44;21.10;85.80
20526;DHT22;10421;49.142;9.232;2022-09-09T03:47:12;21.10;85.50
20526;DHT22;10421;49.142;9.232;2022-09-09T03:49:39;21.10;85.60
20526;DHT22;10421;49.142;9.232;2022-09-09T03:52:06;21.10;85.70
20526;DHT22;10421;49.142;9.232;2022-09-09T03:54:34;21.10;85.40
20526;DHT22;10421;49.142;9.232;2022-09-09T03:57:01;21.00;85.60
20526;DHT22;10421;49.142;9.232;2022-09-09T03:59:28;21.10;85.80
20526;DHT22;10421;49.142;9.232;2022-09-09T04:01:55;21.10;86.10
20526;DHT22;10421;49.142;9.232;2022-09-09T04:04:22;21.10;87.00
20526;DHT22;10421;49.142;9.232;2022-09-09T04:06:49;21.10;86.80
20526;DHT22;10421;49.142;9.232;2022-09-09T04:09:16;21.20;86.80
20526;DHT22;10421;49.142;9.232;2022-09-09T04:11:44;21.20;87.00
20526;DHT22;10421;49.142;9.232;2022-09-09T04:14:11;21.20;87.00
20526;DHT22;10421;49.142;9.232;2022-09-09T04:16:39;21.20;86.30
20526;DHT22;10421;49.142;9.232;2022-09-09T04:19:09;21.10;85.90
20526;DHT22;10421;49.142;9.232;2022-09-09T04:21:38;21.00;85.70
20526;DHT22;10421;49.142;9.232;2022-09-09T04:24:06;20.90;85.60
20526;DHT22;10421;49.142;9.232;2022-09-09T04:26:33;20.80;85.80
20526;DHT22;10421;49.142;9.232;2022-09-09T04:29:02;20.60;85.90
20526;DHT22;10421;49.142;9.232;2022-09-09T04:31:29;20.60;86.30
20526;DHT22;10421;49.142;9.232;2022-09-09T04:33:56;20.60;86.40
20526;DHT22;10421;49.142;9.232;2022-09-09T04:36:23;20.60;86.40
20526;DHT22;10421;49.142;9.232;2022-09-09T04:38:50;20.60;86.50
20526;DHT22;10421;49.142;9.232;2022-09-09T04:41:17;20.70;86.60
20526;DHT22;10421;49.142;9.232;2022-09-09T04:43:43;20.70;86.40
20526;DHT22;10421;49.142;9.232;2022-09-09T04:46:11;20.50;86.10
20526;DHT22;10421;49.142;9.232;2022-09-09T04:48:38;20.50;86.20
20526;DHT22;10421;49.142;9.232;2022-09-09T04:51:07;20.50;86.30
20526;DHT22;10421;49.142;9.232;2022-09-09T04:53:35;20.40;86.30
20526;DHT22;10421;49.142;9.232;2022-09-09T04:56:02;20.40;86.10
20526;DHT22;10421;49.142;9.232;2022-09-09T04:58:29;20.40;86.00
20526;DHT22;10421;49.142;9.232;2022-09-09T05:01:06;20.40;85.80
20526;DHT22;10421;49.142;9.232;2022-09-09T05:03:34;20.50;85.60
20526;DHT22;10421;49.142;9.232;2022-09-09T05:06:08;20.50;85.20
20526;DHT22;10421;49.142;9.232;2022-09-09T05:08:36;20.50;85.00
20526;DHT22;10421;49.142;9.232;2022-09-09T05:11:03;20.50;84.80
20526;DHT22;10421;49.142;9.232;2022-09-09T05:13:30;20.50;84.80
20526;DHT22;10421;49.142;9.232;2022-09-09T05:15:57;20.50;84.80
20526;DHT22;10421;49.142;9.232;2022-09-09T05:18:24;20.50;84.80
20526;DHT22;10421;49.142;9.232;2022-09-09T05:20:52;20.50;84.60
20526;DHT22;10421;49.142;9.232;2022-09-09T05:23:24;20.50;84.60
20526;DHT22;10421;49.142;9.232;2022-09-09T05:25:55;20.50;85.00
20526;DHT22;10421;49.142;9.232;2022-09-09T05:28:23;20.50;84.90
20526;DHT22;10421;49.142;9.232;2022-09-09T05:30:58;20.50;85.10
20526;DHT22;10421;49.142;9.232;2022-09-09T05:33:26;20.40;85.50
20526;DHT22;10421;49.142;9.232;2022-09-09T05:36:02;20.30;85.80
20526;DHT22;10421;49.142;9.232;2022-09-09T05:38:30;20.30;85.90
20526;DHT22;10421;49.142;9.232;2022-09-09T05:40:58;20.20;86.20
20526;DHT22;10421;49.142;9.232;2022-09-09T05:43:26;20.20;86.30
20526;DHT22;10421;49.142;9.232;2022-09-09T05:46:00;20.20;86.80
20526;DHT22;10421;49.142;9.232;2022-09-09T05:48:28;20.10;86.50
20526;DHT22;10421;49.142;9.232;2022-09-09T05:50:56;20.10;86.70
20526;DHT22;10421;49.142;9.232;2022-09-09T05:53:24;20.00;87.10
20526;DHT22;10421;49.142;9.232;2022-09-09T05:55:59;20.00;87.20
20526;DHT22;10421;49.142;9.232;2022-09-09T05:58:25;20.00;87.00
20526;DHT22;10421;49.142;9.232;2022-09-09T06:00:53;20.00;87.20
20526;DHT22;10421;49.142;9.232;2022-09-09T06:03:26;20.00;87.30
20526;DHT22;10421;49.142;9.232;2022-09-09T06:05:57;20.10;87.50
20526;DHT22;10421;49.142;9.232;2022-09-09T06:08:26;20.20;87.70
20526;DHT22;10421;49.142;9.232;2022-09-09T06:10:53;20.20;87.30
20526;DHT22;10421;49.142;9.232;2022-09-09T06:13:19;20.30;87.20
20526;DHT22;10421;49.142;9.232;2022-09-09T06:15:50;20.20;87.10
20526;DHT22;10421;49.142;9.232;2022-09-09T06:18:17;20.20;87.20
20526;DHT22;10421;49.142;9.232;2022-09-09T06:20:53;20.10;87.30
20526;DHT22;10421;49.142;9.232;2022-09-09T06:23:20;20.10;87.50
20526;DHT22;10421;49.142;9.232;2022-09-09T06:25:49;20.20;87.80
20526;DHT22;10421;49.142;9.232;2022-09-09T06:28:16;20.20;87.60
20526;DHT22;10421;49.142;9.232;2022-09-09T06:30:43;20.30;87.70
20526;DHT22;10421;49.142;9.232;2022-09-09T06:33:10;20.40;87.40
20526;DHT22;10421;49.142;9.232;2022-09-09T06:35:37;20.50;87.60
20526;DHT22;10421;49.142;9.232;2022-09-09T06:38:04;20.60;87.40
20526;DHT22;10421;49.142;9.232;2022-09-09T06:40:31;20.70;86.80
20526;DHT22;10421;49.142;9.232;2022-09-09T06:43:00;20.70;86.60
20526;DHT22;10421;49.142;9.232;2022-09-09T06:45:27;20.70;86.40
20526;DHT22;10421;49.142;9.232;2022-09-09T06:47:55;20.80;86.30
20526;DHT22;10421;49.142;9.232;2022-09-09T06:50:22;20.80;86.30
20526;DHT22;10421;49.142;9.232;2022-09-09T06:52:48;20.80;86.40
20526;DHT22;10421;49.142;9.232;2022-09-09T06:55:15;20.90;86.40
20526;DHT22;10421;49.142;9.232;2022-09-09T06:57:43;20.90;86.00
20526;DHT22;10421;49.142;9.232;2022-09-09T07:00:12;20.80;86.30
20526;DHT22;10421;49.142;9.232;2022-09-09T07:02:39;20.90;86.40
20526;DHT22;10421;49.142;9.232;2022-09-09T07:05:07;21.00;86.40
20526;DHT22;10421;49.142;9.232;2022-09-09T07:07:34;21.00;86.40
20526;DHT22;10421;49.142;9.232;2022-09-09T07:10:02;21.00;86.10
20526;DHT22;10421;49.142;9.232;2022-09-09T07:12:29;20.90;86.10
20526;DHT22;10421;49.142;9.232;2022-09-09T07:14:56;21.00;86.00
20526;DHT22;10421;49.142;9.232;2022-09-09T07:17:24;21.00;86.20
20526;DHT22;10421;49.142;9.232;2022-09-09T07:19:54;21.00;86.10
20526;DHT22;10421;49.142;9.232;2022-09-09T07:22:22;21.10;86.10
20526;DHT22;10421;49.142;9.232;2022-09-09T07:24:48;21.00;85.90
20526;DHT22;10421;49.142;9.232;2022-09-09T07:27:15;20.90;85.70
20526;DHT22;10421;49.142;9.232;2022-09-09T07:29:42;20.90;86.20
20526;DHT22;10421;49.142;9.232;2022-09-09T07:32:10;20.90;86.40
20526;DHT22;10421;49.142;9.232;2022-09-09T07:34:38;20.80;86.30
20526;DHT22;10421;49.142;9.232;2022-09-09T07:37:05;20.90;86.30
20526;DHT22;10421;49.142;9.232;2022-09-09T07:39:32;20.90;86.20
20526;DHT22;10421;49.142;9.232;2022-09-09T07:41:59;21.00;86.50
20526;DHT22;10421;49.142;9.232;2022-09-09T07:44:25;21.10;86.20
20526;DHT22;10421;49.142;9.232;2022-09-09T07:46:53;21.20;86.10
20526;DHT22;10421;49.142;9.232;2022-09-09T07:49:20;21.30;86.40
20526;DHT22;10421;49.142;9.232;2022-09-09T07:51:49;21.30;85.90
20526;DHT22;10421;49.142;9.232;2022-09-09T07:54:18;21.40;86.30
20526;DHT22;10421;49.142;9.232;2022-09-09T07:56:46;21.40;86.30
20526;DHT22;10421;49.142;9.232;2022-09-09T07:59:13;21.50;86.10
20526;DHT22;10421;49.142;9.232;2022-09-09T08:01:42;21.50;85.60
20526;DHT22;10421;49.142;9.232;2022-09-09T08:04:11;21.60;85.40
20526;DHT22;10421;49.142;9.232;2022-09-09T08:06:42;21.60;85.10
20526;DHT22;10421;49.142;9.232;2022-09-09T08:09:10;21.70;85.30
20526;DHT22;10421;49.142;9.232;2022-09-09T08:11:37;21.70;86.00
20526;DHT22;10421;49.142;9.232;2022-09-09T08:14:05;21.70;85.60
20526;DHT22;10421;49.142;9.232;2022-09-09T08:16:34;21.80;85.70
20526;DHT22;10421;49.142;9.232;2022-09-09T08:19:02;21.90;85.60
20526;DHT22;10421;49.142;9.232;2022-09-09T08:21:31;22.00;85.70
20526;DHT22;10421;49.142;9.232;2022-09-09T08:24:00;22.20;85.50
20526;DHT22;10421;49.142;9.232;2022-09-09T08:26:29;22.20;85.30
20526;DHT22;10421;49.142;9.232;2022-09-09T08:28:57;22.30;85.40
20526;DHT22;10421;49.142;9.232;2022-09-09T08:31:26;22.50;85.10
20526;DHT22;10421;49.142;9.232;2022-09-09T08:33:53;22.70;84.80
20526;DHT22;10421;49.142;9.232;2022-09-09T08:36:22;22.90;84.00
20526;DHT22;10421;49.142;9.232;2022-09-09T08:38:51;23.00;82.50
20526;DHT22;10421;49.142;9.232;2022-09-09T08:41:51;23.10;81.60
20526;DHT22;10421;49.142;9.232;2022-09-09T08:44:26;23.20;81.40
20526;DHT22;10421;49.142;9.232;2022-09-09T08:47:02;23.30;81.30
20526;DHT22;10421;49.142;9.232;2022-09-09T08:49:49;23.30;80.40
20526;DHT22;10421;49.142;9.232;2022-09-09T08:52:23;23.40;80.00
20526;DHT22;10421;49.142;9.232;2022-09-09T08:54:52;23.40;78.20
20526;DHT22;10421;49.142;9.232;2022-09-09T08:57:25;23.60;77.20
20526;DHT22;10421;49.142;9.232;2022-09-09T08:59:53;23.70;76.30
20526;DHT22;10421;49.142;9.232;2022-09-09T09:02:26;23.80;75.10
20526;DHT22;10421;49.142;9.232;2022-09-09T09:05:13;23.80;74.70
20526;DHT22;10421;49.142;9.232;2022-09-09T09:07:55;23.80;72.40
20526;DHT22;10421;49.142;9.232;2022-09-09T09:10:38;23.90;73.00
20526;DHT22;10421;49.142;9.232;2022-09-09T09:13:17;24.00;72.80
20526;DHT22;10421;49.142;9.232;2022-09-09T09:15:50;24.00;72.50
20526;DHT22;10421;49.142;9.232;2022-09-09T09:18:18;24.10;72.60
20526;DHT22;10421;49.142;9.232;2022-09-09T09:20:54;24.00;72.80
20526;DHT22;10421;49.142;9.232;2022-09-09T09:23:24;24.10;72.80
20526;DHT22;10421;49.142;9.232;2022-09-09T09:25:56;23.90;73.40
20526;DHT22;10421;49.142;9.232;2022-09-09T09:28:29;24.00;73.60
20526;DHT22;10421;49.142;9.232;2022-09-09T09:31:01;24.10;73.70
20526;DHT22;10421;49.142;9.232;2022-09-09T09:33:35;24.20;73.80
20526;DHT22;10421;49.142;9.232;2022-09-09T09:36:06;24.30;72.50
20526;DHT22;10421;49.142;9.232;2022-09-09T09:38:34;24.40;72.20
20526;DHT22;10421;49.142;9.232;2022-09-09T09:41:02;24.40;71.80
20526;DHT22;10421;49.142;9.232;2022-09-09T09:43:32;24.30;71.70
20526;DHT22;10421;49.142;9.232;2022-09-09T09:45:59;24.10;74.60
20526;DHT22;10421;49.142;9.232;2022-09-09T09:48:27;24.10;76.50
20526;DHT22;10421;49.142;9.232;2022-09-09T09:50:56;23.90;79.30
20526;DHT22;10421;49.142;9.232;2022-09-09T09:53:25;23.80;77.00
20526;DHT22;10421;49.142;9.232;2022-09-09T09:55:58;23.70;80.10
20526;DHT22;10421;49.142;9.232;2022-09-09T09:58:26;23.60;80.90
20526;DHT22;10421;49.142;9.232;2022-09-09T10:00:55;23.40;83.60
20526;DHT22;10421;49.142;9.232;2022-09-09T10:03:24;23.30;85.90
20526;DHT22;10421;49.142;9.232;2022-09-09T10:05:51;23.10;86.20
20526;DHT22;10421;49.142;9.232;2022-09-09T10:08:19;22.90;88.10
20526;DHT22;10421;49.142;9.232;2022-09-09T10:10:54;22.80;89.70
20526;DHT22;10421;49.142;9.232;2022-09-09T10:13:27;22.60;90.00
20526;DHT22;10421;49.142;9.232;2022-09-09T10:16:06;22.50;90.50
20526;DHT22;10421;49.142;9.232;2022-09-09T10:18:42;22.40;90.90
20526;DHT22;10421;49.142;9.232;2022-09-09T10:21:20;22.20;91.60
20526;DHT22;10421;49.142;9.232;2022-09-09T10:24:09;22.10;92.20
20526;DHT22;10421;49.142;9.232;2022-09-09T10:26:45;22.10;92.00
20526;DHT22;10421;49.142;9.232;2022-09-09T10:29:26;22.00;91.50
20526;DHT22;10421;49.142;9.232;2022-09-09T10:32:08;22.00;91.30
20526;DHT22;10421;49.142;9.232;2022-09-09T10:34:53;21.90;92.10
20526;DHT22;10421;49.142;9.232;2022-09-09T10:37:31;21.80;90.70
20526;DHT22;10421;49.142;9.232;2022-09-09T10:40:12;21.70;90.30
20526;DHT22;10421;49.142;9.232;2022-09-09T10:42:42;21.70;88.80
20526;DHT22;10421;49.142;9.232;2022-09-09T10:45:17;21.90;88.40
20526;DHT22;10421;49.142;9.232;2022-09-09T10:48:08;22.00;88.20
20526;DHT22;10421;49.142;9.232;2022-09-09T10:50:52;22.10;86.80
20526;DHT22;10421;49.142;9.232;2022-09-09T10:53:27;22.10;87.40
20526;DHT22;10421;49.142;9.232;2022-09-09T10:56:06;22.40;86.60
20526;DHT22;10421;49.142;9.232;2022-09-09T10:58:37;22.50;86.50
20526;DHT22;10421;49.142;9.232;2022-09-09T11:01:14;22.70;86.30
20526;DHT22;10421;49.142;9.232;2022-09-09T11:03:46;22.90;88.40
20526;DHT22;10421;49.142;9.232;2022-09-09T11:06:18;23.10;89.10
20526;DHT22;10421;49.142;9.232;2022-09-09T11:08:46;23.20;88.90
20526;DHT22;10421;49.142;9.232;2022-09-09T11:11:17;23.40;88.40
20526;DHT22;10421;49.142;9.232;2022-09-09T11:13:49;23.40;87.10
20526;DHT22;10421;49.142;9.232;2022-09-09T11:16:24;23.50;86.80
20526;DHT22;10421;49.142;9.232;2022-09-09T11:18:58;23.50;87.10
20526;DHT22;10421;49.142;9.232;2022-09-09T11:21:30;23.60;86.30
20526;DHT22;10421;49.142;9.232;2022-09-09T11:24:00;23.60;85.60
20526;DHT22;10421;49.142;9.232;2022-09-09T11:26:33;23.60;86.40
20526;DHT22;10421;49.142;9.232;2022-09-09T11:29:35;23.60;84.90
20526;DHT22;10421;49.142;9.232;2022-09-09T11:32:18;23.50;83.80
20526;DHT22;10421;49.142;9.232;2022-09-09T11:34:53;23.40;81.10
20526;DHT22;10421;49.142;9.232;2022-09-09T11:37:48;23.50;81.10
20526;DHT22;10421;49.142;9.232;2022-09-09T11:40:21;23.70;83.00
20526;DHT22;10421;49.142;9.232;2022-09-09T11:43:01;23.90;82.30
20526;DHT22;10421;49.142;9.232;2022-09-09T11:45:30;23.90;81.40
20526;DHT22;10421;49.142;9.232;2022-09-09T11:47:59;23.90;78.80
20526;DHT22;10421;49.142;9.232;2022-09-09T11:50:35;23.90;77.90
20526;DHT22;10421;49.142;9.232;2022-09-09T11:56:13;24.20;74.30
20526;DHT22;10421;49.142;9.232;2022-09-09T11:58:43;24.50;70.10
20526;DHT22;10421;49.142;9.232;2022-09-09T12:01:15;24.60;66.70
20526;DHT22;10421;49.142;9.232;2022-09-09T12:03:44;24.70;66.10
20526;DHT22;10421;49.142;9.232;2022-09-09T12:06:17;24.80;66.10
20526;DHT22;10421;49.142;9.232;2022-09-09T12:08:51;24.80;66.00
20526;DHT22;10421;49.142;9.232;2022-09-09T12:11:27;24.50;65.10
20526;DHT22;10421;49.142;9.232;2022-09-09T12:13:55;24.40;64.20
20526;DHT22;10421;49.142;9.232;2022-09-09T12:16:33;24.30;64.80
20526;DHT22;10421;49.142;9.232;2022-09-09T12:19:05;24.20;65.00
20526;DHT22;10421;49.142;9.232;2022-09-09T12:21:40;24.00;65.10
20526;DHT22;10421;49.142;9.232;2022-09-09T12:24:09;23.80;66.60
20526;DHT22;10421;49.142;9.232;2022-09-09T12:26:40;23.60;68.30
20526;DHT22;10421;49.142;9.232;2022-09-09T12:29:18;23.50;68.90
20526;DHT22;10421;49.142;9.232;2022-09-09T12:31:55;23.30;70.00
20526;DHT22;10421;49.142;9.232;2022-09-09T12:34:32;23.30;71.50
20526;DHT22;10421;49.142;9.232;2022-09-09T12:37:11;23.40;72.10
20526;DHT22;10421;49.142;9.232;2022-09-09T12:39:45;23.40;73.70
20526;DHT22;10421;49.142;9.232;2022-09-09T12:42:19;23.50;73.50
20526;DHT22;10421;49.142;9.232;2022-09-09T12:44:57;23.60;71.80
20526;DHT22;10421;49.142;9.232;2022-09-09T12:47:31;23.60;71.80
20526;DHT22;10421;49.142;9.232;2022-09-09T12:50:00;23.60;70.40
20526;DHT22;10421;49.142;9.232;2022-09-09T12:52:31;23.60;69.50
20526;DHT22;10421;49.142;9.232;2022-09-09T12:55:00;23.60;68.60
20526;DHT22;10421;49.142;9.232;2022-09-09T12:57:33;23.70;68.90
20526;DHT22;10421;49.142;9.232;2022-09-09T13:00:14;23.80;69.50
20526;DHT22;10421;49.142;9.232;2022-09-09T13:02:50;23.90;68.80
20526;DHT22;10421;49.142;9.232;2022-09-09T13:05:19;24.10;69.10
20526;DHT22;10421;49.142;9.232;2022-09-09T13:07:48;24.30;68.00
20526;DHT22;10421;49.142;9.232;2022-09-09T13:10:21;24.40;67.00
20526;DHT22;10421;49.142;9.232;2022-09-09T13:12:49;24.50;67.50
20526;DHT22;10421;49.142;9.232;2022-09-09T13:15:20;24.60;67.30
20526;DHT22;10421;49.142;9.232;2022-09-09T13:17:56;24.60;66.30
20526;DHT22;10421;49.142;9.232;2022-09-09T13:20:24;24.70;65.90
20526;DHT22;10421;49.142;9.232;2022-09-09T13:22:53;24.70;65.60
20526;DHT22;10421;49.142;9.232;2022-09-09T13:25:23;24.80;65.50
20526;DHT22;10421;49.142;9.232;2022-09-09T13:27:56;25.00;66.00
20526;DHT22;10421;49.142;9.232;2022-09-09T13:30:27;25.20;61.90
20526;DHT22;10421;49.142;9.232;2022-09-09T13:33:17;25.30;60.60
20526;DHT22;10421;49.142;9.232;2022-09-09T13:35:48;25.50;60.40
20526;DHT22;10421;49.142;9.232;2022-09-09T13:38:17;25.60;60.80
20526;DHT22;10421;49.142;9.232;2022-09-09T13:40:55;25.80;60.70
20526;DHT22;10421;49.142;9.232;2022-09-09T13:43:24;25.80;58.30
20526;DHT22;10421;49.142;9.232;2022-09-09T13:45:56;25.90;57.80
20526;DHT22;10421;49.142;9.232;2022-09-09T13:48:24;25.70;56.60
20526;DHT22;10421;49.142;9.232;2022-09-09T13:50:56;25.50;57.10
20526;DHT22;10421;49.142;9.232;2022-09-09T13:53:25;25.40;57.20
20526;DHT22;10421;49.142;9.232;2022-09-09T13:55:52;25.30;58.00
20526;DHT22;10421;49.142;9.232;2022-09-09T13:58:19;25.30;58.30
20526;DHT22;10421;49.142;9.232;2022-09-09T14:00:48;25.40;58.10
20526;DHT22;10421;49.142;9.232;2022-09-09T14:03:15;25.50;58.00
20526;DHT22;10421;49.142;9.232;2022-09-09T14:05:44;25.60;57.90
20526;DHT22;10421;49.142;9.232;2022-09-09T14:08:25;25.60;58.20
20526;DHT22;10421;49.142;9.232;2022-09-09T14:10:54;25.40;58.50
20526;DHT22;10421;49.142;9.232;2022-09-09T14:13:23;25.40;59.50
20526;DHT22;10421;49.142;9.232;2022-09-09T14:15:50;25.40;60.00
20526;DHT22;10421;49.142;9.232;2022-09-09T14:18:19;25.40;61.10
20526;DHT22;10421;49.142;9.232;2022-09-09T14:20:48;25.40;61.90
20526;DHT22;10421;49.142;9.232;2022-09-09T14:23:15;25.40;61.90
20526;DHT22;10421;49.142;9.232;2022-09-09T14:25:43;25.50;63.50
20526;DHT22;10421;49.142;9.232;2022-09-09T14:28:11;25.50;64.70
20526;DHT22;10421;49.142;9.232;2022-09-09T14:30:39;25.50;65.30
20526;DHT22;10421;49.142;9.232;2022-09-09T14:33:07;25.70;66.30
20526;DHT22;10421;49.142;9.232;2022-09-09T14:35:34;25.90;66.50
20526;DHT22;10421;49.142;9.232;2022-09-09T14:38:02;26.00;66.70
20526;DHT22;10421;49.142;9.232;2022-09-09T14:40:29;26.20;66.80
20526;DHT22;10421;49.142;9.232;2022-09-09T14:42:57;26.40;66.60
20526;DHT22;10421;49.142;9.232;2022-09-09T14:45:24;26.60;66.20
20526;DHT22;10421;49.142;9.232;2022-09-09T14:47:52;26.80;65.50
20526;DHT22;10421;49.142;9.232;2022-09-09T14:50:19;26.90;64.40
20526;DHT22;10421;49.142;9.232;2022-09-09T14:52:46;27.10;63.40
20526;DHT22;10421;49.142;9.232;2022-09-09T14:55:13;27.20;63.00
20526;DHT22;10421;49.142;9.232;2022-09-09T14:57:41;27.30;62.40
20526;DHT22;10421;49.142;9.232;2022-09-09T15:00:10;27.30;61.20
20526;DHT22;10421;49.142;9.232;2022-09-09T15:02:37;27.40;60.90
20526;DHT22;10421;49.142;9.232;2022-09-09T15:05:05;27.20;59.50
20526;DHT22;10421;49.142;9.232;2022-09-09T15:07:32;27.20;59.80
20526;DHT22;10421;49.142;9.232;2022-09-09T15:09:59;27.10;59.80
20526;DHT22;10421;49.142;9.232;2022-09-09T15:12:26;27.00;60.00
20526;DHT22;10421;49.142;9.232;2022-09-09T15:14:53;26.90;60.00
20526;DHT22;10421;49.142;9.232;2022-09-09T15:17:22;26.80;60.10
20526;DHT22;10421;49.142;9.232;2022-09-09T15:19:53;26.70;60.70
20526;DHT22;10421;49.142;9.232;2022-09-09T15:22:20;26.50;60.70
20526;DHT22;10421;49.142;9.232;2022-09-09T15:24:46;26.50;61.20
20526;DHT22;10421;49.142;9.232;2022-09-09T15:27:13;26.30;61.50
20526;DHT22;10421;49.142;9.232;2022-09-09T15:29:40;26.20;61.90
20526;DHT22;10421;49.142;9.232;2022-09-09T15:32:07;26.20;62.20
20526;DHT22;10421;49.142;9.232;2022-09-09T15:34:35;26.10;62.60
20526;DHT22;10421;49.142;9.232;2022-09-09T15:37:02;26.10;62.90
20526;DHT22;10421;49.142;9.232;2022-09-09T15:39:29;26.00;63.00
20526;DHT22;10421;49.142;9.232;2022-09-09T15:41:56;25.90;63.10
20526;DHT22;10421;49.142;9.232;2022-09-09T15:44:23;25.90;63.10
20526;DHT22;10421;49.142;9.232;2022-09-09T15:46:52;25.90;63.40
20526;DHT22;10421;49.142;9.232;2022-09-09T15:49:21;25.90;63.60
20526;DHT22;10421;49.142;9.232;2022-09-09T15:51:54;25.90;63.90
20526;DHT22;10421;49.142;9.232;2022-09-09T15:54:22;25.90;64.30
20526;DHT22;10421;49.142;9.232;2022-09-09T15:56:51;25.90;64.60